sensor_id;sensor_type;location;lat;lon;timestamp;temperature;humidity
47434;SHT31;33184;48.774;8.918;2023-03-14T00:01:48;9.15;91.97
47434;SHT31;33184;48.774;8.918;2023-03-14T00:07:13;9.11;92.37
47434;SHT31;33184;48.774;8.918;2023-03-14T00:12:33;9.12;92.54
47434;SHT31;33184;48.774;8.918;2023-03-14T00:17:54;9.15;92.65
47434;SHT31;33184;48.774;8.918;2023-03-14T00:23:14;9.15;92.54
47434;SHT31;33184;48.774;8.918;2023-03-14T00:28:35;9.13;92.44
47434;SHT31;33184;48.774;8.918;2023-03-14T00:33:56;9.13;92.47
47434;SHT31;33184;48.774;8.918;2023-03-14T00:39:18;9.16;92.45
47434;SHT31;33184;48.774;8.918;2023-03-14T00:44:39;9.15;92.28
47434;SHT31;33184;48.774;8.918;2023-03-14T00:50:01;9.13;92.31
47434;SHT31;33184;48.774;8.918;2023-03-14T00:55:21;9.19;92.19
47434;SHT31;33184;48.774;8.918;2023-03-14T01:00:43;9.23;91.97
47434;SHT31;33184;48.774;8.918;2023-03-14T01:06:16;9.26;91.67
47434;SHT31;33184;48.774;8.918;2023-03-14T01:11:37;9.35;91.47
47434;SHT31;33184;48.774;8.918;2023-03-14T01:16:57;9.30;91.49
47434;SHT31;33184;48.774;8.918;2023-03-14T01:22:21;9.33;91.19
47434;SHT31;33184;48.774;8.918;2023-03-14T01:27:42;9.42;90.08
47434;SHT31;33184;48.774;8.918;2023-03-14T01:33:03;9.44;89.49
47434;SHT31;33184;48.774;8.918;2023-03-14T01:38:24;9.43;89.20
47434;SHT31;33184;48.774;8.918;2023-03-14T01:43:45;9.37;88.87
47434;SHT31;33184;48.774;8.918;2023-03-14T02:00:00;9.35;87.76
47434;SHT31;33184;48.774;8.918;2023-03-14T02:05:35;9.30;87.10
47434;SHT31;33184;48.774;8.918;2023-03-14T02:11:08;9.27;86.80
47434;SHT31;33184;48.774;8.918;2023-03-14T02:16:42;9.25;86.79
47434;SHT31;33184;48.774;8.918;2023-03-14T02:22:22;9.15;87.03
47434;SHT31;33184;48.774;8.918;2023-03-14T02:27:48;9.19;86.20
47434;SHT31;33184;48.774;8.918;2023-03-14T02:33:13;9.20;86.00
47434;SHT31;33184;48.774;8.918;2023-03-14T02:38:51;9.18;86.10
47434;SHT31;33184;48.774;8.918;2023-03-14T02:44:14;9.13;85.90
47434;SHT31;33184;48.774;8.918;2023-03-14T02:49:34;9.08;86.35
47434;SHT31;33184;48.774;8.918;2023-03-14T02:54:55;8.99;86.48
47434;SHT31;33184;48.774;8.918;2023-03-14T03:00:16;8.93;86.52
47434;SHT31;33184;48.774;8.918;2023-03-14T03:05:37;8.93;86.19
47434;SHT31;33184;48.774;8.918;2023-03-14T03:10:58;8.89;86.34
47434;SHT31;33184;48.774;8.918;2023-03-14T03:16:21;8.88;86.03
47434;SHT31;33184;48.774;8.918;2023-03-14T03:21:42;8.89;85.27
47434;SHT31;33184;48.774;8.918;2023-03-14T03:27:04;8.85;85.42
47434;SHT31;33184;48.774;8.918;2023-03-14T03:32:25;8.74;85.51
47434;SHT31;33184;48.774;8.918;2023-03-14T03:37:46;8.71;85.31
47434;SHT31;33184;48.774;8.918;2023-03-14T03:43:07;8.72;84.74
47434;SHT31;33184;48.774;8.918;2023-03-14T03:48:31;8.71;84.06
47434;SHT31;33184;48.774;8.918;2023-03-14T03:53:51;8.65;83.82
47434;SHT31;33184;48.774;8.918;2023-03-14T03:59:19;8.60;83.65
47434;SHT31;33184;48.774;8.918;2023-03-14T04:04:40;8.61;82.64
47434;SHT31;33184;48.774;8.918;2023-03-14T04:10:00;8.54;82.48
47434;SHT31;33184;48.774;8.918;2023-03-14T04:15:30;8.50;82.18
47434;SHT31;33184;48.774;8.918;2023-03-14T04:20:55;8.51;81.86
47434;SHT31;33184;48.774;8.918;2023-03-14T04:26:21;8.51;81.97
47434;SHT31;33184;48.774;8.918;2023-03-14T04:31:42;8.48;81.55
47434;SHT31;33184;48.774;8.918;2023-03-14T04:37:03;8.48;81.42
47434;SHT31;33184;48.774;8.918;2023-03-14T04:42:30;8.50;80.96
47434;SHT31;33184;48.774;8.918;2023-03-14T04:47:51;8.50;80.91
47434;SHT31;33184;48.774;8.918;2023-03-14T04:53:14;8.54;80.58
47434;SHT31;33184;48.774;8.918;2023-03-14T04:58:36;8.41;81.08
47434;SHT31;33184;48.774;8.918;2023-03-14T05:03:58;8.37;80.97
47434;SHT31;33184;48.774;8.918;2023-03-14T05:09:51;8.37;80.94
47434;SHT31;33184;48.774;8.918;2023-03-14T05:15:39;8.24;81.59
47434;SHT31;33184;48.774;8.918;2023-03-14T05:21:28;8.31;81.16
47434;SHT31;33184;48.774;8.918;2023-03-14T05:27:18;8.31;81.09
47434;SHT31;33184;48.774;8.918;2023-03-14T05:32:56;8.30;81.30
47434;SHT31;33184;48.774;8.918;2023-03-14T05:38:35;8.27;81.31
47434;SHT31;33184;48.774;8.918;2023-03-14T05:44:14;8.37;81.10
47434;SHT31;33184;48.774;8.918;2023-03-14T05:49:53;8.41;80.86
47434;SHT31;33184;48.774;8.918;2023-03-14T05:55:34;8.38;80.78
47434;SHT31;33184;48.774;8.918;2023-03-14T06:01:33;8.42;80.52
47434;SHT31;33184;48.774;8.918;2023-03-14T06:07:03;8.42;80.49
47434;SHT31;33184;48.774;8.918;2023-03-14T06:12:25;8.38;80.44
47434;SHT31;33184;48.774;8.918;2023-03-14T06:17:46;8.36;80.47
47434;SHT31;33184;48.774;8.918;2023-03-14T06:23:08;8.36;80.36
47434;SHT31;33184;48.774;8.918;2023-03-14T06:28:28;8.37;80.09
47434;SHT31;33184;48.774;8.918;2023-03-14T06:33:53;8.45;79.41
47434;SHT31;33184;48.774;8.918;2023-03-14T06:39:14;8.48;79.28
47434;SHT31;33184;48.774;8.918;2023-03-14T06:44:39;8.54;79.41
47434;SHT31;33184;48.774;8.918;2023-03-14T06:50:00;8.69;79.23
47434;SHT31;33184;48.774;8.918;2023-03-14T06:55:20;8.79;78.73
47434;SHT31;33184;48.774;8.918;2023-03-14T07:00:41;8.85;78.46
47434;SHT31;33184;48.774;8.918;2023-03-14T07:06:04;9.06;77.61
47434;SHT31;33184;48.774;8.918;2023-03-14T07:11:27;9.26;77.47
47434;SHT31;33184;48.774;8.918;2023-03-14T07:16:47;9.46;76.73
47434;SHT31;33184;48.774;8.918;2023-03-14T07:22:08;9.61;75.72
47434;SHT31;33184;48.774;8.918;2023-03-14T07:27:29;9.74;75.49
47434;SHT31;33184;48.774;8.918;2023-03-14T07:32:50;9.97;74.47
47434;SHT31;33184;48.774;8.918;2023-03-14T07:38:11;10.11;73.46
47434;SHT31;33184;48.774;8.918;2023-03-14T07:43:41;10.26;72.10
47434;SHT31;33184;48.774;8.918;2023-03-14T07:49:02;10.43;71.73
47434;SHT31;33184;48.774;8.918;2023-03-14T07:54:22;10.55;71.15
47434;SHT31;33184;48.774;8.918;2023-03-14T07:59:43;10.69;71.84
47434;SHT31;33184;48.774;8.918;2023-03-14T08:05:04;10.77;70.05
47434;SHT31;33184;48.774;8.918;2023-03-14T08:10:25;10.69;70.01
47434;SHT31;33184;48.774;8.918;2023-03-14T08:15:47;10.55;69.67
47434;SHT31;33184;48.774;8.918;2023-03-14T08:21:08;10.45;69.56
47434;SHT31;33184;48.774;8.918;2023-03-14T08:26:29;10.43;70.05
47434;SHT31;33184;48.774;8.918;2023-03-14T08:31:49;10.66;68.62
47434;SHT31;33184;48.774;8.918;2023-03-14T08:37:10;11.07;69.02
47434;SHT31;33184;48.774;8.918;2023-03-14T08:42:30;11.34;68.91
47434;SHT31;33184;48.774;8.918;2023-03-14T08:47:51;11.10;69.07
47434;SHT31;33184;48.774;8.918;2023-03-14T08:53:11;10.82;69.60
47434;SHT31;33184;48.774;8.918;2023-03-14T08:58:38;10.66;70.55
47434;SHT31;33184;48.774;8.918;2023-03-14T09:03:58;10.55;72.14
47434;SHT31;33184;48.774;8.918;2023-03-14T09:09:19;10.48;72.71
47434;SHT31;33184;48.774;8.918;2023-03-14T09:14:39;10.29;73.85
47434;SHT31;33184;48.774;8.918;2023-03-14T09:20:00;10.26;74.33
47434;SHT31;33184;48.774;8.918;2023-03-14T09:25:21;10.28;75.04
47434;SHT31;33184;48.774;8.918;2023-03-14T09:30:41;10.46;74.40
47434;SHT31;33184;48.774;8.918;2023-03-14T09:36:02;10.59;73.85
47434;SHT31;33184;48.774;8.918;2023-03-14T09:41:44;10.46;74.17
47434;SHT31;33184;48.774;8.918;2023-03-14T09:47:09;10.53;74.38
47434;SHT31;33184;48.774;8.918;2023-03-14T09:52:35;10.77;74.04
47434;SHT31;33184;48.774;8.918;2023-03-14T09:58:00;10.94;73.55
47434;SHT31;33184;48.774;8.918;2023-03-14T10:03:34;11.06;72.69
47434;SHT31;33184;48.774;8.918;2023-03-14T10:08:55;11.37;71.39
47434;SHT31;33184;48.774;8.918;2023-03-14T10:14:29;11.40;71.32
47434;SHT31;33184;48.774;8.918;2023-03-14T10:19:58;11.30;70.10
47434;SHT31;33184;48.774;8.918;2023-03-14T10:25:30;11.06;70.82
47434;SHT31;33184;48.774;8.918;2023-03-14T10:30:51;11.08;70.96
47434;SHT31;33184;48.774;8.918;2023-03-14T10:41:36;10.89;72.57
47434;SHT31;33184;48.774;8.918;2023-03-14T10:46:59;10.63;74.63
47434;SHT31;33184;48.774;8.918;2023-03-14T10:52:23;10.43;76.82
47434;SHT31;33184;48.774;8.918;2023-03-14T10:57:44;10.24;77.45
47434;SHT31;33184;48.774;8.918;2023-03-14T11:03:10;10.12;79.17
47434;SHT31;33184;48.774;8.918;2023-03-14T11:09:00;10.02;79.70
47434;SHT31;33184;48.774;8.918;2023-03-14T11:14:33;9.84;78.48
47434;SHT31;33184;48.774;8.918;2023-03-14T11:25:56;9.75;80.73
47434;SHT31;33184;48.774;8.918;2023-03-14T11:31:32;9.78;80.57
47434;SHT31;33184;48.774;8.918;2023-03-14T11:37:15;9.78;81.54
47434;SHT31;33184;48.774;8.918;2023-03-14T11:42:40;9.60;80.70
47434;SHT31;33184;48.774;8.918;2023-03-14T11:59:27;9.70;82.89
47434;SHT31;33184;48.774;8.918;2023-03-14T12:10:13;9.51;80.07
47434;SHT31;33184;48.774;8.918;2023-03-14T12:15:39;10.38;74.75
47434;SHT31;33184;48.774;8.918;2023-03-14T12:21:02;10.00;73.89
47434;SHT31;33184;48.774;8.918;2023-03-14T12:26:25;9.84;71.00
47434;SHT31;33184;48.774;8.918;2023-03-14T12:31:48;10.28;68.29
47434;SHT31;33184;48.774;8.918;2023-03-14T12:37:33;10.79;62.14
47434;SHT31;33184;48.774;8.918;2023-03-14T12:43:01;10.93;59.45
47434;SHT31;33184;48.774;8.918;2023-03-14T12:48:25;10.79;59.05
47434;SHT31;33184;48.774;8.918;2023-03-14T12:54:01;10.50;59.48
47434;SHT31;33184;48.774;8.918;2023-03-14T12:59:30;10.32;59.99
47434;SHT31;33184;48.774;8.918;2023-03-14T13:05:05;10.58;57.01
47434;SHT31;33184;48.774;8.918;2023-03-14T13:10:30;11.04;56.68
47434;SHT31;33184;48.774;8.918;2023-03-14T13:15:59;9.95;57.17
47434;SHT31;33184;48.774;8.918;2023-03-14T13:21:25;9.53;55.78
47434;SHT31;33184;48.774;8.918;2023-03-14T13:26:46;9.20;57.27
47434;SHT31;33184;48.774;8.918;2023-03-14T13:32:19;8.67;55.73
47434;SHT31;33184;48.774;8.918;2023-03-14T13:37:40;8.68;57.57
47434;SHT31;33184;48.774;8.918;2023-03-14T13:43:06;8.72;54.51
47434;SHT31;33184;48.774;8.918;2023-03-14T13:48:40;8.44;52.77
47434;SHT31;33184;48.774;8.918;2023-03-14T13:54:03;8.37;52.31
47434;SHT31;33184;48.774;8.918;2023-03-14T13:59:28;8.40;50.15
47434;SHT31;33184;48.774;8.918;2023-03-14T14:04:49;8.26;49.84
47434;SHT31;33184;48.774;8.918;2023-03-14T14:10:12;8.27;52.06
47434;SHT31;33184;48.774;8.918;2023-03-14T14:15:37;8.20;50.46
47434;SHT31;33184;48.774;8.918;2023-03-14T14:21:00;8.29;51.37
47434;SHT31;33184;48.774;8.918;2023-03-14T14:26:21;8.00;52.11
47434;SHT31;33184;48.774;8.918;2023-03-14T14:31:43;7.99;51.24
47434;SHT31;33184;48.774;8.918;2023-03-14T14:37:04;8.00;51.83
47434;SHT31;33184;48.774;8.918;2023-03-14T14:42:30;7.99;52.30
47434;SHT31;33184;48.774;8.918;2023-03-14T14:47:55;7.95;52.97
47434;SHT31;33184;48.774;8.918;2023-03-14T14:53:36;8.09;52.39
47434;SHT31;33184;48.774;8.918;2023-03-14T14:59:00;8.06;53.22
47434;SHT31;33184;48.774;8.918;2023-03-14T15:04:22;8.07;52.42
47434;SHT31;33184;48.774;8.918;2023-03-14T15:09:42;8.10;53.25
47434;SHT31;33184;48.774;8.918;2023-03-14T15:15:03;8.17;52.39
47434;SHT31;33184;48.774;8.918;2023-03-14T15:20:24;8.10;52.88
47434;SHT31;33184;48.774;8.918;2023-03-14T15:25:45;8.62;52.74
47434;SHT31;33184;48.774;8.918;2023-03-14T15:31:09;8.34;52.36
47434;SHT31;33184;48.774;8.918;2023-03-14T15:36:33;8.87;51.16
47434;SHT31;33184;48.774;8.918;2023-03-14T15:41:53;8.16;53.47
47434;SHT31;33184;48.774;8.918;2023-03-14T15:47:14;8.07;53.69
47434;SHT31;33184;48.774;8.918;2023-03-14T15:52:34;8.02;53.82
47434;SHT31;33184;48.774;8.918;2023-03-14T15:57:55;8.02;55.41
47434;SHT31;33184;48.774;8.918;2023-03-14T16:03:16;7.87;56.21
47434;SHT31;33184;48.774;8.918;2023-03-14T16:08:37;8.36;54.35
47434;SHT31;33184;48.774;8.918;2023-03-14T16:13:57;8.12;55.09
47434;SHT31;33184;48.774;8.918;2023-03-14T16:19:18;8.07;55.31
47434;SHT31;33184;48.774;8.918;2023-03-14T16:24:38;8.00;55.90
47434;SHT31;33184;48.774;8.918;2023-03-14T16:29:59;7.85;57.05
47434;SHT31;33184;48.774;8.918;2023-03-14T16:35:19;7.78;57.09
47434;SHT31;33184;48.774;8.918;2023-03-14T16:40:40;7.75;57.08
47434;SHT31;33184;48.774;8.918;2023-03-14T16:46:01;7.76;57.30
47434;SHT31;33184;48.774;8.918;2023-03-14T16:51:23;7.76;57.17
47434;SHT31;33184;48.774;8.918;2023-03-14T16:56:43;7.72;57.86
47434;SHT31;33184;48.774;8.918;2023-03-14T17:02:04;7.70;58.45
47434;SHT31;33184;48.774;8.918;2023-03-14T17:07:25;7.69;58.92
47434;SHT31;33184;48.774;8.918;2023-03-14T17:12:45;7.03;66.75
47434;SHT31;33184;48.774;8.918;2023-03-14T17:18:06;6.19;73.96
47434;SHT31;33184;48.774;8.918;2023-03-14T17:23:28;5.67;77.98
47434;SHT31;33184;48.774;8.918;2023-03-14T17:28:49;5.50;79.73
47434;SHT31;33184;48.774;8.918;2023-03-14T17:34:11;5.39;79.62
47434;SHT31;33184;48.774;8.918;2023-03-14T17:39:31;5.44;79.72
47434;SHT31;33184;48.774;8.918;2023-03-14T17:44:52;5.32;79.73
47434;SHT31;33184;48.774;8.918;2023-03-14T17:50:12;5.40;78.97
47434;SHT31;33184;48.774;8.918;2023-03-14T17:55:33;5.43;79.48
47434;SHT31;33184;48.774;8.918;2023-03-14T18:00:54;5.29;80.68
47434;SHT31;33184;48.774;8.918;2023-03-14T18:06:16;5.20;81.86
47434;SHT31;33184;48.774;8.918;2023-03-14T18:11:37;4.99;81.77
47434;SHT31;33184;48.774;8.918;2023-03-14T18:16:59;5.00;80.57
47434;SHT31;33184;48.774;8.918;2023-03-14T18:22:20;5.05;80.21
47434;SHT31;33184;48.774;8.918;2023-03-14T18:27:40;5.03;79.90
47434;SHT31;33184;48.774;8.918;2023-03-14T18:33:01;5.06;78.73
47434;SHT31;33184;48.774;8.918;2023-03-14T18:38:22;5.06;77.59
47434;SHT31;33184;48.774;8.918;2023-03-14T18:43:43;5.09;77.46
47434;SHT31;33184;48.774;8.918;2023-03-14T18:49:03;5.00;76.83
47434;SHT31;33184;48.774;8.918;2023-03-14T18:54:24;4.96;77.11
47434;SHT31;33184;48.774;8.918;2023-03-14T18:59:44;4.91;76.53
47434;SHT31;33184;48.774;8.918;2023-03-14T19:05:05;4.85;77.03
47434;SHT31;33184;48.774;8.918;2023-03-14T19:10:28;4.81;76.84
47434;SHT31;33184;48.774;8.918;2023-03-14T19:15:49;4.81;76.87
47434;SHT31;33184;48.774;8.918;2023-03-14T19:21:11;4.82;76.47
47434;SHT31;33184;48.774;8.918;2023-03-14T19:26:32;4.81;76.05
47434;SHT31;33184;48.774;8.918;2023-03-14T19:31:55;4.81;75.12
47434;SHT31;33184;48.774;8.918;2023-03-14T19:37:15;4.87;75.23
47434;SHT31;33184;48.774;8.918;2023-03-14T19:42:36;4.87;75.32
47434;SHT31;33184;48.774;8.918;2023-03-14T19:48:05;4.79;75.32
47434;SHT31;33184;48.774;8.918;2023-03-14T19:53:25;4.77;75.48
47434;SHT31;33184;48.774;8.918;2023-03-14T19:58:46;4.78;75.19
47434;SHT31;33184;48.774;8.918;2023-03-14T20:04:07;4.84;75.11
47434;SHT31;33184;48.774;8.918;2023-03-14T20:09:27;4.95;74.13
47434;SHT31;33184;48.774;8.918;2023-03-14T20:14:48;5.15;72.83
47434;SHT31;33184;48.774;8.918;2023-03-14T20:20:09;5.18;72.84
47434;SHT31;33184;48.774;8.918;2023-03-14T20:25:30;5.18;73.02
47434;SHT31;33184;48.774;8.918;2023-03-14T20:30:51;5.18;73.00
47434;SHT31;33184;48.774;8.918;2023-03-14T20:36:11;5.20;73.03
47434;SHT31;33184;48.774;8.918;2023-03-14T20:41:32;5.19;73.98
47434;SHT31;33184;48.774;8.918;2023-03-14T20:46:53;5.18;74.71
47434;SHT31;33184;48.774;8.918;2023-03-14T20:52:13;5.10;75.54
47434;SHT31;33184;48.774;8.918;2023-03-14T20:57:34;5.00;76.44
47434;SHT31;33184;48.774;8.918;2023-03-14T21:02:55;4.96;77.75
47434;SHT31;33184;48.774;8.918;2023-03-14T21:08:18;4.91;78.55
47434;SHT31;33184;48.774;8.918;2023-03-14T21:13:40;4.77;78.95
47434;SHT31;33184;48.774;8.918;2023-03-14T21:19:01;4.72;79.27
47434;SHT31;33184;48.774;8.918;2023-03-14T21:24:22;4.69;79.54
47434;SHT31;33184;48.774;8.918;2023-03-14T21:29:44;4.67;79.62
47434;SHT31;33184;48.774;8.918;2023-03-14T21:35:05;4.64;79.10
47434;SHT31;33184;48.774;8.918;2023-03-14T21:40:26;4.55;79.82
47434;SHT31;33184;48.774;8.918;2023-03-14T21:45:47;4.35;80.54
47434;SHT31;33184;48.774;8.918;2023-03-14T21:51:07;4.21;82.40
47434;SHT31;33184;48.774;8.918;2023-03-14T21:56:28;4.16;82.84
47434;SHT31;33184;48.774;8.918;2023-03-14T22:01:48;4.07;84.15
47434;SHT31;33184;48.774;8.918;2023-03-14T22:07:11;4.03;85.04
47434;SHT31;33184;48.774;8.918;2023-03-14T22:12:32;3.97;84.79
47434;SHT31;33184;48.774;8.918;2023-03-14T22:17:53;3.72;83.18
47434;SHT31;33184;48.774;8.918;2023-03-14T22:23:13;2.72;83.80
47434;SHT31;33184;48.774;8.918;2023-03-14T22:28:34;2.32;85.94
47434;SHT31;33184;48.774;8.918;2023-03-14T22:33:54;1.81;86.93
47434;SHT31;33184;48.774;8.918;2023-03-14T22:39:15;1.64;87.77
47434;SHT31;33184;48.774;8.918;2023-03-14T22:44:36;1.57;88.08
47434;SHT31;33184;48.774;8.918;2023-03-14T22:49:56;1.50;88.12
47434;SHT31;33184;48.774;8.918;2023-03-14T22:55:17;1.48;88.23
47434;SHT31;33184;48.774;8.918;2023-03-14T23:00:38;1.50;88.60
47434;SHT31;33184;48.774;8.918;2023-03-14T23:05:58;1.44;89.27
47434;SHT31;33184;48.774;8.918;2023-03-14T23:11:19;1.40;89.28
47434;SHT31;33184;48.774;8.918;2023-03-14T23:16:39;1.29;89.41
47434;SHT31;33184;48.774;8.918;2023-03-14T23:22:00;1.37;89.72
47434;SHT31;33184;48.774;8.918;2023-03-14T23:27:20;1.30;89.74
47434;SHT31;33184;48.774;8.918;2023-03-14T23:32:42;1.32;89.76
47434;SHT31;33184;48.774;8.918;2023-03-14T23:38:02;1.25;89.90
47434;SHT31;33184;48.774;8.918;2023-03-14T23:43:23;1.33;89.91
47434;SHT31;33184;48.774;8.918;2023-03-14T23:48:43;1.26;89.77
47434;SHT31;33184;48.774;8.918;2023-03-14T23:54:05;1.20;89.74
47434;SHT31;33184;48.774;8.918;2023-03-14T23:59:26;1.22;89.63
